Time;durP1;ratioP1;P1;durP2;ratioP2;P2;SDS_P1;SDS_P2;PMS_P1;PMS_P2;Temp;Humidity;BMP_temperature;BMP_pressure;BME280_temperature;BME280_humidity;BME280_pressure;Samples;Min_cycle;Max_cycle;Signal;HPM_P1;HPM_P2
2021/12/05 10:35:29;;;;;;;0.73;0.67;;;;;;;6.05;100.00;97740.94;5065585;28;40738;-82
2021/12/05 10:38:03;;;;;;;1.63;0.97;;;;;;;7.09;100.00;97728.94;5065358;28;41689;-83
2021/12/05 10:40:40;;;;;;;1.50;1.37;;;;;;;8.13;99.33;97702.41;5065751;28;40914;-83
2021/12/05 10:43:13;;;;;;;0.83;0.83;;;;;;;11.35;88.00;97679.03;5085396;28;39941;-83
2021/12/05 10:45:45;;;;;;;1.10;1.10;;;;;;;12.34;80.64;97723.56;5078031;28;40713;-84
2021/12/05 10:48:22;;;;;;;0.60;0.60;;;;;;;12.45;77.06;97710.19;5084475;28;43044;-84
2021/12/05 10:50:52;;;;;;;0.80;0.80;;;;;;;12.13;74.03;97734.22;5068122;28;41170;-84
2021/12/05 10:53:32;;;;;;;1.83;0.73;;;;;;;11.86;75.45;97710.94;5067873;28;39983;-84
2021/12/05 10:56:19;;;;;;;0.87;0.83;;;;;;;13.84;72.51;97732.91;5085073;28;41610;-86
2021/12/05 10:58:52;;;;;;;0.60;0.60;;;;;;;15.69;65.84;97731.75;5068291;28;43345;-85
2021/12/05 11:01:34;;;;;;;0.57;0.57;;;;;;;15.76;65.62;97743.47;5083921;28;40873;-85
2021/12/05 11:04:05;;;;;;;0.67;0.67;;;;;;;15.06;66.72;97729.16;5068340;28;41253;-85
2021/12/05 11:06:50;;;;;;;1.03;0.67;;;;;;;14.67;66.35;97740.03;5067364;28;42162;-85
2021/12/05 11:09:24;;;;;;;0.73;0.73;;;;;;;14.06;65.19;97749.53;5084578;28;42575;-85
2021/12/05 11:11:56;;;;;;;0.60;0.60;;;;;;;13.48;66.27;97749.59;5085477;28;42698;-85
2021/12/05 11:14:27;;;;;;;0.93;0.63;;;;;;;12.88;66.41;97743.53;5067635;28;39980;-85
2021/12/05 11:17:00;;;;;;;0.60;0.60;;;;;;;12.33;67.23;97724.53;5052003;28;41573;-84
2021/12/05 11:19:34;;;;;;;1.40;0.70;;;;;;;12.06;69.22;97722.47;5068306;28;43177;-85
2021/12/05 11:22:10;;;;;;;1.33;0.83;;;;;;;11.70;65.90;97749.44;5068699;28;41120;-83
2021/12/05 11:24:43;;;;;;;0.60;0.60;;;;;;;11.47;67.61;97725.72;5084175;28;39082;-84
2021/12/05 11:27:21;;;;;;;0.50;0.50;;;;;;;11.41;66.43;97730.69;5067440;28;41109;-85
2021/12/05 11:30:10;;;;;;;0.60;0.60;;;;;;;11.43;66.37;97739.34;5085522;28;42639;-84
2021/12/05 11:32:43;;;;;;;0.60;0.60;;;;;;;11.31;67.82;97741.22;5084785;28;41946;-83
2021/12/05 11:35:21;;;;;;;3.03;0.70;;;;;;;11.10;67.18;97743.84;5064371;28;39431;-85
2021/12/05 11:37:57;;;;;;;2.23;1.23;;;;;;;10.76;67.15;97698.06;5068286;28;40706;-85
2021/12/05 11:40:27;;;;;;;1.63;0.90;;;;;;;10.55;68.04;97701.63;5056628;28;41957;-84
2021/12/05 11:42:59;;;;;;;1.63;0.80;;;;;;;10.31;67.42;97723.81;5053784;28;41166;-84
2021/12/05 11:45:28;;;;;;;0.80;0.80;;;;;;;10.18;67.53;97717.81;5070873;28;40094;-84
2021/12/05 11:47:58;;;;;;;0.40;0.40;;;;;;;11.26;65.63;97716.06;5054207;28;41874;-84
2021/12/05 11:50:34;;;;;;;2.10;0.80;;;;;;;11.06;64.74;97730.97;5053889;28;42920;-86
2021/12/05 11:53:04;;;;;;;0.50;0.50;;;;;;;10.56;66.49;97725.34;5049905;28;41088;-84
2021/12/05 11:55:38;;;;;;;0.60;0.60;;;;;;;10.15;64.75;97723.28;5051063;28;39858;-84
2021/12/05 11:58:17;;;;;;;0.60;0.60;;;;;;;10.69;65.52;97717.25;5065160;28;41801;-84
2021/12/05 12:00:45;;;;;;;0.47;0.47;;;;;;;10.71;66.04;97718.81;5070605;28;41891;-84
2021/12/05 12:03:14;;;;;;;1.10;0.80;;;;;;;11.02;65.97;97743.63;5053573;28;41472;-83
2021/12/05 12:05:42;;;;;;;0.50;0.50;;;;;;;12.15;62.01;97736.75;5071070;28;40086;-85
2021/12/05 12:08:13;;;;;;;0.97;0.97;;;;;;;14.40;58.33;97772.00;5071590;28;42636;-85
2021/12/05 12:10:43;;;;;;;0.50;0.50;;;;;;;17.47;53.20;97774.47;5053878;28;42057;-86
2021/12/05 12:13:14;;;;;;;0.60;0.60;;;;;;;20.11;47.94;97805.28;5052921;28;41482;-86
2021/12/05 12:15:45;;;;;;;0.60;0.60;;;;;;;22.05;44.67;97803.88;5036338;28;39494;-86
2021/12/05 12:18:23;;;;;;;1.07;0.83;;;;;;;23.59;40.02;97822.53;5053628;28;41750;-87
2021/12/05 12:20:51;;;;;;;1.53;0.70;;;;;;;24.95;36.58;97830.13;5054499;28;42481;-86
2021/12/05 12:23:22;;;;;;;0.87;0.80;;;;;;;25.00;35.91;97840.31;5053201;28;41096;-85
2021/12/05 12:25:53;;;;;;;1.50;0.60;;;;;;;25.14;33.45;97858.19;5054613;28;39470;-85
2021/12/05 12:28:22;;;;;;;0.40;0.40;;;;;;;22.53;35.90;97819.22;5069991;28;41961;-84
2021/12/05 12:30:54;;;;;;;1.33;0.90;;;;;;;20.66;37.42;97817.50;5052610;28;42904;-84
2021/12/05 12:33:29;;;;;;;0.30;0.30;;;;;;;19.11;40.55;97795.50;5052593;28;42480;-85
2021/12/05 12:35:57;;;;;;;0.57;0.50;;;;;;;17.93;41.93;97799.78;5071270;28;38801;-84
2021/12/05 12:38:33;;;;;;;1.27;0.67;;;;;;;16.92;44.72;97784.91;5053417;28;41942;-82
2021/12/05 12:41:04;;;;;;;0.50;0.40;;;;;;;16.03;45.34;97783.38;5050390;28;41879;-83
2021/12/05 12:43:49;;;;;;;0.70;0.70;;;;;;;15.30;46.63;97780.06;5050579;28;43295;-82
2021/12/05 12:46:26;;;;;;;1.27;1.03;;;;;;;14.66;47.33;97773.00;5048889;28;40304;-83
2021/12/05 12:48:58;;;;;;;0.40;0.40;;;;;;;14.13;48.86;97771.91;5052985;28;40673;-83
2021/12/05 12:51:33;;;;;;;0.60;0.60;;;;;;;13.65;49.70;97763.03;5053456;28;43411;-82
2021/12/05 12:54:05;;;;;;;0.70;0.70;;;;;;;13.23;50.00;97764.28;5036889;28;41434;-81
2021/12/05 12:56:33;;;;;;;0.63;0.50;;;;;;;12.83;50.35;97775.00;5069763;28;38906;-80
2021/12/05 12:59:05;;;;;;;0.53;0.50;;;;;;;12.40;50.71;97762.81;5068224;28;41661;-82
2021/12/05 13:02:01;;;;;;;0.57;0.50;;;;;;;12.11;52.26;97753.91;5069817;28;44405;-82
2021/12/05 13:05:02;;;;;;;0.47;0.43;;;;;;;11.86;53.25;97763.97;5049620;28;42168;-83
2021/12/05 13:10:34;;;;;;;0.60;0.60;;;;;;;11.25;54.91;97747.00;5041475;28;40710;-83
2021/12/05 13:13:09;;;;;;;0.50;0.50;;;;;;;11.18;55.67;97755.59;5052028;28;42931;-81
2021/12/05 13:15:41;;;;;;;1.20;0.50;;;;;;;10.91;56.62;97735.72;5042758;28;41908;-81
2021/12/05 13:18:26;;;;;;;0.40;0.33;;;;;;;10.84;57.32;97753.06;5069220;28;38729;-82
2021/12/05 13:20:58;;;;;;;0.97;0.70;;;;;;;10.68;57.64;97747.31;5069889;28;42635;-83
2021/12/05 13:23:36;;;;;;;1.43;0.40;;;;;;;10.53;57.93;97756.50;5051866;28;41805;-79
2021/12/05 13:26:23;;;;;;;1.00;0.50;;;;;;;10.32;58.43;97751.94;5066641;28;42193;-80
2021/12/05 13:28:53;;;;;;;1.47;0.60;;;;;;;10.19;58.94;97761.81;5049149;28;39398;-80
2021/12/05 13:31:47;;;;;;;0.70;0.50;;;;;;;10.03;59.66;97771.88;5068352;28;42684;-81
2021/12/05 13:34:22;;;;;;;0.50;0.50;;;;;;;9.89;60.21;97769.47;5050339;28;43561;-83
2021/12/05 13:36:54;;;;;;;0.40;0.40;;;;;;;9.65;60.33;97751.84;5048431;28;40997;-82
2021/12/05 13:39:41;;;;;;;0.80;0.50;;;;;;;9.65;60.37;97778.28;5031852;28;40099;-82
2021/12/05 13:42:12;;;;;;;0.67;0.63;;;;;;;9.53;60.71;97773.09;5049559;28;41157;-83
2021/12/05 13:45:26;;;;;;;1.07;0.50;;;;;;;9.43;60.58;97777.38;5050976;28;41914;-83
2021/12/05 13:48:15;;;;;;;1.60;0.50;;;;;;;9.31;61.04;97765.94;5013988;28;41825;-82
2021/12/05 13:50:48;;;;;;;1.47;0.73;;;;;;;9.26;61.48;97768.09;5051915;28;39216;-81
2021/12/05 13:53:45;;;;;;;1.03;0.97;;;;;;;9.24;61.41;97764.72;5034595;28;40347;-83
2021/12/05 13:56:24;;;;;;;1.60;0.80;;;;;;;9.20;61.57;97771.19;5050495;28;41740;-84
2021/12/05 13:58:56;;;;;;;1.63;0.80;;;;;;;9.16;61.16;97777.63;5048128;28;41189;-84
2021/12/05 14:01:28;;;;;;;2.10;1.47;;;;;;;8.97;61.42;97733.28;5049363;28;38910;-85
2021/12/05 14:04:03;;;;;;;1.30;1.20;;;;;;;9.18;61.54;97773.94;5062853;28;41527;-83
2021/12/05 14:06:53;;;;;;;1.10;1.00;;;;;;;9.16;61.82;97780.28;5050155;28;41666;-84
2021/12/05 14:09:30;;;;;;;1.40;0.90;;;;;;;9.08;61.64;97756.25;5069001;28;41587;-83
2021/12/05 14:12:01;;;;;;;1.10;1.00;;;;;;;9.07;62.12;97765.13;5054421;28;38923;-84
2021/12/05 14:14:34;;;;;;;1.70;1.30;;;;;;;9.16;63.02;97770.56;5056260;28;42122;-83
2021/12/05 14:17:05;;;;;;;0.93;0.90;;;;;;;8.98;62.26;97766.66;5069612;28;42688;-83
2021/12/05 14:19:35;;;;;;;1.67;1.10;;;;;;;8.95;62.07;97788.84;5055043;28;42349;-84
2021/12/05 14:22:08;;;;;;;3.97;1.40;;;;;;;8.79;62.09;97788.25;5070683;28;40143;-84
2021/12/05 14:24:40;;;;;;;2.17;1.60;;;;;;;8.66;62.13;97787.44;5052488;28;40104;-83
2021/12/05 14:27:12;;;;;;;1.57;1.10;;;;;;;8.50;62.50;97777.16;5051390;28;42028;-84
2021/12/05 14:29:43;;;;;;;2.07;1.87;;;;;;;8.55;62.96;97795.28;5051934;28;41080;-84
2021/12/05 14:32:14;;;;;;;2.37;1.40;;;;;;;8.38;63.38;97778.03;5050593;28;38822;-84
2021/12/05 14:34:43;;;;;;;2.33;1.80;;;;;;;8.38;63.82;97790.38;5049377;28;41696;-84
2021/12/05 14:37:14;;;;;;;2.10;1.13;;;;;;;8.35;63.90;97798.50;5048045;28;42643;-85
2021/12/05 14:39:46;;;;;;;2.87;1.53;;;;;;;8.18;64.01;97782.03;5062192;28;42434;-85
2021/12/05 14:42:17;;;;;;;2.80;1.77;;;;;;;8.10;64.31;97780.88;5051368;28;39226;-84
2021/12/05 14:44:50;;;;;;;1.13;1.00;;;;;;;8.06;64.75;97788.16;5067830;28;41523;-85
2021/12/05 14:47:21;;;;;;;2.27;1.50;;;;;;;8.07;65.10;97800.38;5068160;28;43336;-84
2021/12/05 14:49:51;;;;;;;2.63;1.17;;;;;;;7.90;65.07;97785.75;5069311;28;42417;-83
2021/12/05 14:52:22;;;;;;;1.50;1.13;;;;;;;7.85;65.25;97785.22;5049398;28;38988;-84
2021/12/05 14:54:52;;;;;;;1.63;1.00;;;;;;;7.87;65.56;97804.41;5066983;28;41995;-84
2021/12/05 14:57:27;;;;;;;0.97;0.90;;;;;;;7.82;65.64;97813.56;5067856;28;42415;-84
2021/12/05 15:00:01;;;;;;;3.00;1.23;;;;;;;7.76;66.18;97800.81;5051153;28;41905;-84
2021/12/05 15:02:29;;;;;;;1.63;1.00;;;;;;;7.70;67.29;97803.84;5068002;28;40004;-84
2021/12/05 15:05:01;;;;;;;1.80;1.70;;;;;;;7.62;67.96;97806.16;5067149;28;41561;-84
2021/12/05 15:07:30;;;;;;;2.77;1.67;;;;;;;7.53;67.84;97808.50;5068200;28;43172;-84
2021/12/05 15:09:59;;;;;;;3.37;1.83;;;;;;;7.45;68.34;97812.56;5051625;28;41235;-84
2021/12/05 15:12:29;;;;;;;8.00;2.30;;;;;;;7.30;68.26;97803.03;5068142;28;38660;-84
2021/12/05 15:15:00;;;;;;;1.97;1.77;;;;;;;7.34;68.71;97821.16;5069445;28;42483;-85
2021/12/05 15:17:32;;;;;;;2.60;1.47;;;;;;;7.27;68.46;97824.31;5071511;28;42766;-84
2021/12/05 15:20:02;;;;;;;1.60;1.50;;;;;;;7.05;68.81;97804.63;5056116;28;41256;-84
2021/12/05 15:22:30;;;;;;;1.33;1.10;;;;;;;7.14;68.66;97835.66;5054511;28;39448;-85
2021/12/05 15:25:01;;;;;;;3.40;1.60;;;;;;;7.07;68.71;97828.25;5054454;28;41473;-83
2021/12/05 15:27:31;;;;;;;1.47;1.20;;;;;;;7.06;68.39;97842.34;5054432;28;41792;-82
2021/12/05 15:30:02;;;;;;;1.60;1.50;;;;;;;6.90;68.81;97831.13;5055652;28;42037;-84
2021/12/05 15:32:32;;;;;;;1.20;1.10;;;;;;;6.87;68.49;97840.06;5054373;28;39031;-83
2021/12/05 15:35:04;;;;;;;1.50;1.37;;;;;;;6.84;68.70;97851.63;5070268;28;42999;-83
2021/12/05 15:37:32;;;;;;;2.53;1.20;;;;;;;6.69;68.99;97839.41;5054272;28;41604;-84
2021/12/05 15:40:05;;;;;;;2.13;1.20;;;;;;;6.65;68.76;97840.56;5071368;28;43214;-84
2021/12/05 15:42:36;;;;;;;1.27;1.17;;;;;;;6.55;69.15;97839.47;5072004;28;40148;-85
2021/12/05 15:45:07;;;;;;;1.50;1.07;;;;;;;6.71;69.06;97863.00;5071277;28;43250;-82
2021/12/05 15:47:38;;;;;;;1.17;1.07;;;;;;;6.67;69.37;97869.41;5071432;28;43690;-83
2021/12/05 15:50:10;;;;;;;2.13;0.77;;;;;;;6.60;69.92;97860.22;5054061;28;41551;-82
2021/12/05 15:52:41;;;;;;;1.17;0.90;;;;;;;6.59;69.54;97867.25;5066682;28;39058;-84
2021/12/05 15:55:15;;;;;;;1.50;1.10;;;;;;;6.60;69.91;97875.97;5070773;28;40738;-83
2021/12/05 15:57:47;;;;;;;1.27;1.00;;;;;;;6.58;69.85;97881.34;5053138;28;41632;-84
2021/12/05 16:00:21;;;;;;;2.47;1.43;;;;;;;6.57;70.08;97881.44;5053844;28;41009;-84
2021/12/05 16:02:58;;;;;;;1.57;1.47;;;;;;;6.57;70.18;97890.16;5071437;28;38661;-84
2021/12/05 16:05:26;;;;;;;1.77;1.30;;;;;;;6.46;69.72;97866.31;5071656;28;42719;-85
2021/12/05 16:08:04;;;;;;;2.17;1.70;;;;;;;6.47;70.12;97865.38;5054402;28;41873;-83
2021/12/05 16:10:36;;;;;;;2.70;2.20;;;;;;;6.54;70.52;97890.38;5053772;28;41298;-84
2021/12/05 16:13:12;;;;;;;2.33;1.70;;;;;;;6.52;70.44;97887.00;5054940;28;38829;-83
2021/12/05 16:15:41;;;;;;;1.27;1.17;;;;;;;6.47;70.29;97886.41;5055234;28;40903;-84
2021/12/05 16:18:10;;;;;;;1.37;1.27;;;;;;;6.54;70.51;97902.69;5053987;28;41843;-84
2021/12/05 16:20:43;;;;;;;2.07;1.17;;;;;;;6.56;70.35;97900.78;5053355;28;42076;-83
2021/12/05 16:23:24;;;;;;;2.57;1.70;;;;;;;6.47;70.72;97889.03;5070494;28;39562;-84
2021/12/05 16:26:09;;;;;;;3.50;2.00;;;;;;;6.39;71.75;97888.69;5070619;28;41579;-84
2021/12/05 16:28:39;;;;;;;2.43;1.73;;;;;;;6.40;71.97;97900.91;5053015;28;41833;-83
2021/12/05 16:31:13;;;;;;;1.80;1.67;;;;;;;6.26;71.99;97893.00;5053563;28;42173;-83
2021/12/05 16:33:43;;;;;;;1.20;1.10;;;;;;;6.28;72.18;97915.63;5049173;28;39940;-85
2021/12/05 16:36:11;;;;;;;1.63;1.47;;;;;;;6.17;72.35;97894.41;5069970;28;40335;-84
